Time;durP1;ratioP1;P1;durP2;ratioP2;P2;SDS_P1;SDS_P2;PMS_P1;PMS_P2;Temp;Humidity;BMP_temperature;BMP_pressure;BME280_temperature;BME280_humidity;BME280_pressure;Samples;Min_cycle;Max_cycle;Signal;HPM_P1;HPM_P2
2021/03/13 00:00:20;;;;;;;5.13;0.87;;;;;;;3.16;76.66;98644.06;5044537;28;20410;-65
2021/03/13 00:02:50;;;;;;;7.30;0.80;;;;;;;3.13;77.29;98646.94;5041341;28;20200;-65
2021/03/13 00:05:22;;;;;;;4.03;1.00;;;;;;;3.02;76.91;98643.22;5045536;28;20738;-65
2021/03/13 00:07:49;;;;;;;1.90;0.83;;;;;;;2.94;76.85;98634.13;5041742;28;20668;-65
2021/03/13 00:10:18;;;;;;;7.43;1.27;;;;;;;2.98;76.95;98652.34;5044201;28;20323;-66
2021/03/13 00:12:45;;;;;;;1.73;0.80;;;;;;;2.92;77.11;98658.09;5047775;28;20582;-66
2021/03/13 00:15:14;;;;;;;1.30;0.63;;;;;;;2.88;76.90;98653.97;5038438;28;20201;-65
2021/03/13 00:17:42;;;;;;;21.03;11.43;;;;;;;2.70;77.25;98628.75;5042622;28;20212;-65
2021/03/13 00:20:12;;;;;;;1999.90;999.90;;;;;;;2.88;77.39;98655.78;5039735;28;20761;-65
2021/03/13 00:22:39;;;;;;;301.67;105.90;;;;;;;2.80;76.94;98658.97;5043503;28;20681;-66
2021/03/13 00:25:08;;;;;;;38.90;13.43;;;;;;;2.87;77.41;98654.06;5026013;28;20291;-66
2021/03/13 00:27:45;;;;;;;19.73;8.53;;;;;;;2.88;77.15;98653.13;5039313;28;21513;-66
2021/03/13 00:30:17;;;;;;;9.63;3.67;;;;;;;2.87;76.89;98654.06;5046214;28;20296;-65
2021/03/13 00:32:47;;;;;;;7.23;2.00;;;;;;;2.77;77.15;98644.13;5042975;28;20544;-65
2021/03/13 00:35:14;;;;;;;6.57;3.30;;;;;;;2.83;77.08;98649.94;5042259;28;20218;-66
2021/03/13 00:37:42;;;;;;;5.07;2.87;;;;;;;2.65;77.39;98620.28;5041933;28;20207;-66
2021/03/13 00:40:11;;;;;;;2.73;1.47;;;;;;;2.79;77.28;98647.50;5042963;28;20196;-66
2021/03/13 00:42:41;;;;;;;11.03;2.90;;;;;;;2.79;77.30;98655.47;5043037;28;20201;-65
2021/03/13 00:45:10;;;;;;;9.50;2.73;;;;;;;2.76;77.15;98647.72;5024070;28;20211;-65
2021/03/13 00:47:37;;;;;;;6.30;2.20;;;;;;;2.77;77.01;98649.44;5041381;28;20322;-65
2021/03/13 00:50:07;;;;;;;10.60;2.87;;;;;;;2.76;77.17;98652.19;5026238;28;20625;-65
2021/03/13 00:52:34;;;;;;;8.67;2.97;;;;;;;2.56;77.17;98621.75;5024476;28;20226;-65
2021/03/13 00:55:02;;;;;;;3.20;1.67;;;;;;;2.71;77.72;98647.19;5026970;28;20295;-65
2021/03/13 00:57:30;;;;;;;4.10;1.93;;;;;;;2.69;77.51;98649.09;5023949;28;20232;-65
2021/03/13 00:59:59;;;;;;;18.60;1.87;;;;;;;2.61;77.35;98646.13;5026569;28;20211;-65
2021/03/13 01:02:26;;;;;;;78.33;38.00;;;;;;;2.56;77.60;98648.25;5042780;28;20221;-65
2021/03/13 01:04:54;;;;;;;7.90;5.10;;;;;;;2.55;77.62;98643.06;5024590;28;20697;-65
2021/03/13 01:07:22;;;;;;;6.47;2.80;;;;;;;2.45;78.01;98630.47;5021760;28;20701;-65
2021/03/13 01:09:51;;;;;;;5.30;1.60;;;;;;;2.14;77.88;98580.53;5030768;28;20195;-65
2021/03/13 01:12:19;;;;;;;6.37;1.57;;;;;;;2.53;78.28;98648.47;5026953;28;20232;-65
2021/03/13 01:14:47;;;;;;;2.63;1.23;;;;;;;2.49;78.03;98650.47;5043858;28;20406;-65
2021/03/13 01:17:15;;;;;;;9.80;1.07;;;;;;;2.43;78.38;98644.72;5026919;28;20272;-65
2021/03/13 01:19:43;;;;;;;2.47;1.07;;;;;;;2.39;78.46;98653.84;5043247;28;20222;-65
2021/03/13 01:22:10;;;;;;;2.27;1.00;;;;;;;2.33;78.23;98646.31;5031307;28;20211;-65
2021/03/13 01:24:40;;;;;;;1.53;0.67;;;;;;;2.29;78.12;98652.78;5047074;28;21090;-65
2021/03/13 01:27:09;;;;;;;7.13;1.60;;;;;;;2.24;78.75;98649.59;5033157;28;20239;-65
2021/03/13 01:29:37;;;;;;;4.13;1.17;;;;;;;1.94;78.76;98611.00;5024900;28;20203;-65
2021/03/13 01:32:05;;;;;;;1.87;0.60;;;;;;;2.13;79.12;98640.56;5051095;28;20298;-65
2021/03/13 01:34:38;;;;;;;3.83;0.53;;;;;;;2.15;78.54;98644.00;5028882;28;20219;-66
2021/03/13 01:37:13;;;;;;;1.00;0.80;;;;;;;2.19;78.61;98636.69;5034170;28;20210;-65
2021/03/13 01:39:43;;;;;;;6.30;0.80;;;;;;;2.11;79.21;98642.47;5029312;28;20202;-65
2021/03/13 01:42:16;;;;;;;1.57;0.70;;;;;;;2.10;78.55;98632.84;5049142;28;20195;-65
2021/03/13 01:44:45;;;;;;;2.40;1.00;;;;;;;2.18;78.53;98635.84;5024786;28;20232;-65
2021/03/13 01:47:20;;;;;;;0.60;0.60;;;;;;;2.22;78.33;98635.63;5031225;28;20204;-65
2021/03/13 01:49:51;;;;;;;0.60;0.60;;;;;;;2.22;78.48;98632.97;5033737;28;20674;-65
2021/03/13 01:52:23;;;;;;;6.10;0.80;;;;;;;2.20;78.68;98630.44;5025448;28;20436;-65
2021/03/13 01:54:51;;;;;;;2.47;0.60;;;;;;;2.05;78.60;98612.94;5028849;28;20201;-65
2021/03/13 01:57:19;;;;;;;7.33;1.23;;;;;;;2.17;78.86;98631.50;5045805;28;20189;-65
2021/03/13 01:59:49;;;;;;;5.13;1.00;;;;;;;2.16;78.93;98628.94;5042596;28;20204;-66
2021/03/13 02:02:18;;;;;;;353.63;234.80;;;;;;;2.13;79.17;98626.47;5033312;28;20200;-66
2021/03/13 02:04:45;;;;;;;1999.90;962.93;;;;;;;2.11;79.32;98629.22;5042303;28;20613;-66
2021/03/13 02:07:22;;;;;;;468.90;158.60;;;;;;;2.13;79.48;98629.97;5042013;28;20224;-66
2021/03/13 02:10:03;;;;;;;41.37;14.73;;;;;;;2.14;79.51;98628.19;5045473;28;20191;-66
2021/03/13 02:12:46;;;;;;;28.80;11.27;;;;;;;2.14;79.38;98629.06;5028976;28;20223;-66
2021/03/13 02:15:20;;;;;;;3.43;2.10;;;;;;;2.12;79.20;98628.28;5045476;28;20206;-65
2021/03/13 02:17:56;;;;;;;4.33;2.10;;;;;;;2.04;78.90;98621.81;5032478;28;20276;-66
2021/03/13 02:20:51;;;;;;;3.10;1.23;;;;;;;1.64;79.18;98583.97;5045595;28;20212;-65
2021/03/13 02:23:23;;;;;;;8.23;3.60;;;;;;;1.82;78.75;98627.69;5036519;28;20572;-66
2021/03/13 02:26:30;;;;;;;6.40;2.40;;;;;;;1.77;78.96;98621.84;5052466;28;20211;-65
2021/03/13 02:29:44;;;;;;;5.20;1.77;;;;;;;1.70;78.78;98629.34;5025603;28;20211;-65
2021/03/13 02:32:23;;;;;;;7.87;1.30;;;;;;;1.66;79.17;98629.66;5041741;28;20219;-66
2021/03/13 02:34:56;;;;;;;6.73;2.27;;;;;;;1.35;78.82;98586.72;5041550;28;20545;-65
2021/03/13 02:37:28;;;;;;;9.53;4.77;;;;;;;1.54;78.90;98624.25;5046081;28;20214;-65
2021/03/13 02:39:59;;;;;;;3.83;1.67;;;;;;;1.36;78.86;98606.06;5030206;28;20208;-65
2021/03/13 02:42:27;;;;;;;1.90;1.43;;;;;;;1.43;78.69;98616.13;5031506;28;20558;-65
2021/03/13 02:44:56;;;;;;;6.83;2.40;;;;;;;1.46;79.21;98625.66;5028677;28;20279;-65
2021/03/13 02:47:29;;;;;;;1.97;1.70;;;;;;;1.48;79.20;98619.31;5028297;28;20698;-65
2021/03/13 02:50:02;;;;;;;3.40;1.07;;;;;;;1.46;79.16;98623.03;5035143;28;20605;-65
2021/03/13 02:52:40;;;;;;;6.97;1.13;;;;;;;1.44;78.78;98622.28;5026827;28;20597;-65
2021/03/13 02:55:13;;;;;;;4.90;0.90;;;;;;;1.41;78.92;98627.75;5046425;28;20588;-66
2021/03/13 02:57:44;;;;;;;11.33;1.10;;;;;;;1.21;79.25;98597.31;5027287;28;20204;-66
2021/03/13 03:00:18;;;;;;;0.67;0.57;;;;;;;1.34;78.93;98631.75;5024388;28;20204;-66
2021/03/13 03:02:52;;;;;;;2.53;1.33;;;;;;;1.27;79.09;98620.75;5029489;28;20203;-66
2021/03/13 03:05:22;;;;;;;1.43;0.67;;;;;;;1.18;79.27;98616.88;5058603;28;20219;-65
2021/03/13 03:07:52;;;;;;;2.30;0.90;;;;;;;1.19;79.07;98621.19;5043124;28;20207;-65
2021/03/13 03:10:22;;;;;;;1.50;0.83;;;;;;;1.13;79.34;98620.75;5043725;28;20275;-66
2021/03/13 03:12:49;;;;;;;4.40;0.80;;;;;;;1.10;79.11;98620.94;5019202;28;20735;-65
2021/03/13 03:15:22;;;;;;;1.97;0.90;;;;;;;1.04;79.13;98619.56;5044174;28;20290;-66
2021/03/13 03:17:51;;;;;;;4.03;0.53;;;;;;;0.90;79.11;98603.72;5030347;28;20197;-65
2021/03/13 03:20:20;;;;;;;1.63;0.80;;;;;;;0.96;79.11;98626.28;5026584;28;20201;-66
2021/03/13 03:22:48;;;;;;;5.90;1.10;;;;;;;0.90;79.08;98624.84;5022160;28;20192;-65
2021/03/13 03:25:21;;;;;;;3.80;0.70;;;;;;;0.85;79.23;98626.94;5031051;28;20657;-66
2021/03/13 03:27:53;;;;;;;5.30;0.93;;;;;;;0.58;79.02;98588.09;5025760;28;20233;-65
2021/03/13 03:30:30;;;;;;;1.83;0.70;;;;;;;0.78;79.01;98623.81;5040275;28;20214;-66
2021/03/13 03:33:00;;;;;;;6.20;1.03;;;;;;;0.76;79.48;98624.88;5026029;28;20594;-65
2021/03/13 03:35:30;;;;;;;1.53;0.70;;;;;;;0.47;79.41;98584.41;5026728;28;20205;-66
2021/03/13 03:37:59;;;;;;;4.53;0.80;;;;;;;0.70;79.32;98631.38;5032744;28;20669;-66
2021/03/13 03:40:31;;;;;;;43.93;30.53;;;;;;;0.70;79.61;98622.63;5027259;28;20208;-65
2021/03/13 03:43:03;;;;;;;1896.17;733.83;;;;;;;0.72;79.88;98626.84;5029254;28;20203;-65
2021/03/13 03:45:33;;;;;;;201.60;79.40;;;;;;;0.76;80.18;98617.78;5025163;28;20535;-65
2021/03/13 03:48:04;;;;;;;26.87;9.33;;;;;;;0.84;80.40;98622.59;5042597;28;20228;-65
2021/03/13 03:50:34;;;;;;;182.07;73.93;;;;;;;0.89;80.10;98612.56;5024707;28;20198;-66
2021/03/13 03:53:14;;;;;;;23.57;8.07;;;;;;;0.76;79.84;98580.81;5043057;28;20214;-66
2021/03/13 03:55:44;;;;;;;6.73;2.93;;;;;;;0.90;79.11;98616.91;5028410;28;20206;-65
2021/03/13 03:58:16;;;;;;;9.97;2.07;;;;;;;0.76;79.08;98615.16;5048277;28;20202;-65
2021/03/13 04:00:45;;;;;;;1.80;1.53;;;;;;;0.73;79.27;98623.28;5043884;28;20207;-65
2021/03/13 04:03:15;;;;;;;4.03;1.13;;;;;;;0.42;79.06;98583.84;5022780;28;20310;-66
2021/03/13 04:05:43;;;;;;;1.70;1.40;;;;;;;0.60;79.67;98619.66;5046362;28;20190;-66
2021/03/13 04:08:12;;;;;;;4.10;1.20;;;;;;;0.58;79.35;98621.56;5044732;28;20681;-66
2021/03/13 04:10:42;;;;;;;5.10;1.67;;;;;;;0.58;80.29;98619.75;5045193;28;20201;-65
2021/03/13 04:13:11;;;;;;;0.80;0.70;;;;;;;0.47;79.75;98597.63;5043036;28;20773;-66
2021/03/13 04:15:39;;;;;;;3.83;1.30;;;;;;;0.59;79.65;98623.25;5042884;28;20197;-66
2021/03/13 04:18:07;;;;;;;3.33;2.30;;;;;;;0.71;79.63;98625.16;5042821;28;20214;-65
2021/03/13 04:20:35;;;;;;;6.13;1.23;;;;;;;0.72;79.54;98618.09;5041013;28;21291;-65
2021/03/13 04:23:03;;;;;;;1.53;0.80;;;;;;;0.65;79.57;98611.50;5042454;28;20273;-65
2021/03/13 04:25:32;;;;;;;1.50;1.30;;;;;;;0.72;79.74;98624.22;5030836;28;20281;-66
2021/03/13 04:27:59;;;;;;;3.00;1.60;;;;;;;0.74;79.52;98627.59;5042736;28;20233;-66
2021/03/13 04:30:27;;;;;;;2.40;1.33;;;;;;;0.81;79.67;98630.72;5040339;28;20541;-66
2021/03/13 04:33:16;;;;;;;2.27;0.73;;;;;;;0.76;79.67;98625.72;5038764;28;20728;-66
2021/03/13 04:35:45;;;;;;;4.00;0.80;;;;;;;0.78;79.23;98629.09;5041592;28;21645;-66
2021/03/13 04:38:16;;;;;;;1.07;0.57;;;;;;;0.55;79.20;98582.16;5040713;28;20508;-66
2021/03/13 04:40:45;;;;;;;2.30;1.10;;;;;;;0.74;79.31;98614.41;5023945;28;20271;-66
2021/03/13 04:43:13;;;;;;;1.90;1.10;;;;;;;0.83;79.63;98623.53;5022702;28;20204;-66
2021/03/13 04:45:42;;;;;;;3.43;0.70;;;;;;;0.85;79.25;98630.41;5046642;28;20203;-66
2021/03/13 04:48:11;;;;;;;1.77;0.73;;;;;;;0.86;79.61;98616.25;5019492;28;20201;-66
2021/03/13 04:50:40;;;;;;;8.90;1.03;;;;;;;0.69;79.23;98579.50;5047053;28;20666;-65
2021/03/13 04:53:08;;;;;;;5.00;0.87;;;;;;;1.03;79.24;98622.28;5026318;28;20314;-66
2021/03/13 04:55:35;;;;;;;3.77;0.90;;;;;;;1.10;79.42;98628.88;5046529;28;20284;-66
2021/03/13 04:58:03;;;;;;;0.67;0.60;;;;;;;1.10;79.34;98616.50;5045412;28;20202;-66
2021/03/13 05:00:30;;;;;;;8.33;0.80;;;;;;;1.06;79.31;98611.53;5050019;28;20210;-65
2021/03/13 05:02:58;;;;;;;5.07;0.67;;;;;;;1.07;78.79;98610.59;5046561;28;20277;-66
2021/03/13 05:05:25;;;;;;;3.47;1.27;;;;;;;1.08;79.25;98618.41;5049260;28;20230;-65
2021/03/13 05:07:54;;;;;;;1.13;0.70;;;;;;;0.98;78.89;98622.59;5049736;28;20634;-66
2021/03/13 05:10:21;;;;;;;1.33;0.60;;;;;;;1.00;79.00;98622.50;5049785;28;20683;-66
2021/03/13 05:12:48;;;;;;;1.73;0.90;;;;;;;1.04;78.73;98618.72;5045910;28;20222;-66
2021/03/13 05:15:15;;;;;;;5.53;1.23;;;;;;;0.92;78.68;98597.41;5046204;28;20226;-66
2021/03/13 05:17:42;;;;;;;1.23;0.70;;;;;;;1.14;79.14;98617.16;5048931;28;20285;-65
2021/03/13 05:20:11;;;;;;;1.50;0.70;;;;;;;1.18;78.85;98621.31;5044726;28;20197;-66
2021/03/13 05:22:38;;;;;;;1.80;0.80;;;;;;;1.20;78.89;98624.69;5046252;28;20322;-65
2021/03/13 05:25:08;;;;;;;9.17;0.80;;;;;;;1.18;78.70;98622.16;5041521;28;20698;-66
2021/03/13 05:27:38;;;;;;;3.07;0.77;;;;;;;0.77;78.70;98545.53;5048204;28;20238;-65
2021/03/13 05:30:08;;;;;;;4.13;1.33;;;;;;;1.28;78.39;98627.72;5049242;28;20289;-66
2021/03/13 05:32:36;;;;;;;1865.57;625.40;;;;;;;1.24;78.71;98618.28;5043717;28;20314;-65
2021/03/13 05:35:04;;;;;;;46.30;22.63;;;;;;;1.34;78.41;98622.03;5047059;28;20201;-65
2021/03/13 05:37:32;;;;;;;11.30;4.83;;;;;;;1.40;78.47;98620.78;5046807;28;20231;-65
2021/03/13 05:39:59;;;;;;;11.50;10.10;;;;;;;1.39;78.88;98617.28;5043048;28;20203;-66
2021/03/13 05:42:27;;;;;;;11.03;2.70;;;;;;;1.49;78.45;98615.72;5046202;28;20209;-66
2021/03/13 05:44:55;;;;;;;15.33;5.60;;;;;;;1.62;78.18;98630.81;5050315;28;20211;-66
2021/03/13 05:47:22;;;;;;;6.60;4.07;;;;;;;1.66;78.55;98625.22;5046821;28;20734;-66
2021/03/13 05:50:01;;;;;;;4.37;1.57;;;;;;;1.71;78.65;98616.97;5048810;28;20555;-66
2021/03/13 05:52:32;;;;;;;2.40;1.13;;;;;;;1.70;77.99;98607.34;5050136;28;20307;-66
2021/03/13 05:54:59;;;;;;;3.70;1.20;;;;;;;1.84;77.92;98626.66;5048600;28;20637;-65
2021/03/13 05:57:27;;;;;;;5.23;1.13;;;;;;;1.89;78.15;98626.34;5048161;28;21205;-66
2021/03/13 05:59:56;;;;;;;4.20;2.00;;;;;;;1.85;77.84;98616.94;5052702;28;20195;-65
2021/03/13 06:02:24;;;;;;;7.90;0.97;;;;;;;1.75;77.80;98605.25;5044180;28;20203;-65
2021/03/13 06:04:52;;;;;;;3.47;0.90;;;;;;;1.91;77.91;98624.44;5040776;28;20201;-65
2021/03/13 06:07:20;;;;;;;3.77;1.07;;;;;;;1.94;77.85;98624.25;5045296;28;20198;-66
2021/03/13 06:09:51;;;;;;;3.97;1.80;;;;;;;1.98;77.93;98623.09;5043690;28;20207;-66
2021/03/13 06:12:19;;;;;;;4.57;3.27;;;;;;;1.87;77.56;98604.44;5043659;28;20289;-66
2021/03/13 06:14:48;;;;;;;2.37;1.50;;;;;;;2.10;77.47;98629.34;5039154;28;20190;-66
2021/03/13 06:17:16;;;;;;;16.53;8.60;;;;;;;2.15;77.45;98625.47;5037745;28;20744;-66
2021/03/13 06:19:49;;;;;;;3.67;1.97;;;;;;;2.22;77.50;98619.75;5035535;28;20199;-66
2021/03/13 06:22:39;;;;;;;3.47;1.57;;;;;;;2.28;77.71;98624.63;5020040;28;20196;-66
2021/03/13 06:25:30;;;;;;;2.70;1.20;;;;;;;2.31;77.32;98630.53;5038390;28;20624;-66
2021/03/13 06:28:03;;;;;;;3.30;1.07;;;;;;;2.33;77.56;98627.78;5015831;28;20252;-66
2021/03/13 06:30:33;;;;;;;7.63;0.90;;;;;;;2.37;77.55;98629.28;5040657;28;20231;-66
2021/03/13 06:33:01;;;;;;;3.07;0.80;;;;;;;2.28;77.26;98616.66;5041802;28;20316;-66
2021/03/13 06:35:30;;;;;;;0.70;0.70;;;;;;;2.39;77.51;98622.06;5039807;28;20199;-66
2021/03/13 06:38:00;;;;;;;1.80;0.57;;;;;;;2.40;77.73;98626.41;5042467;28;20196;-65
2021/03/13 06:40:29;;;;;;;3.67;0.90;;;;;;;2.34;77.75;98611.78;5043872;28;20763;-65
2021/03/13 06:42:58;;;;;;;2.77;1.20;;;;;;;2.43;77.74;98623.53;5025730;28;20293;-65
2021/03/13 06:45:25;;;;;;;2.93;0.73;;;;;;;2.47;77.51;98619.75;5045547;28;20208;-65
2021/03/13 06:47:54;;;;;;;0.97;0.73;;;;;;;2.50;77.67;98622.19;5041174;28;20580;-65
2021/03/13 06:50:23;;;;;;;5.53;1.43;;;;;;;2.53;77.67;98624.63;5041221;28;20208;-65
2021/03/13 06:52:53;;;;;;;3.90;0.90;;;;;;;2.58;77.57;98622.50;5040824;28;20694;-65
2021/03/13 06:55:25;;;;;;;3.53;1.07;;;;;;;2.60;77.81;98620.59;5041674;28;20204;-65
2021/03/13 06:58:05;;;;;;;1.33;0.90;;;;;;;2.56;77.91;98613.81;5043403;28;20195;-65
2021/03/13 07:00:34;;;;;;;0.50;0.50;;;;;;;2.68;77.79;98623.53;5039921;28;20205;-65
2021/03/13 07:03:10;;;;;;;2.60;0.87;;;;;;;2.55;77.83;98598.88;5040854;28;21749;-65
2021/03/13 07:05:39;;;;;;;1.33;1.20;;;;;;;2.63;77.60;98601.84;5042624;28;21305;-65
2021/03/13 07:08:23;;;;;;;6.50;1.00;;;;;;;2.83;77.41;98628.75;5041731;28;20956;-66
2021/03/13 07:10:52;;;;;;;2.80;1.40;;;;;;;2.48;77.45;98568.47;5042707;28;20208;-65
2021/03/13 07:13:34;;;;;;;5.33;1.63;;;;;;;2.88;77.81;98630.09;5035778;28;20220;-65
2021/03/13 07:16:21;;;;;;;3.37;1.77;;;;;;;2.94;77.88;98626.16;5036210;28;20230;-65
2021/03/13 07:18:50;;;;;;;3.20;1.53;;;;;;;2.96;77.83;98626.91;5043132;28;20211;-65
2021/03/13 07:21:20;;;;;;;23.30;7.27;;;;;;;2.99;77.98;98632.84;5040037;28;20200;-65
2021/03/13 07:23:52;;;;;;;4.03;2.57;;;;;;;2.26;77.90;98499.44;5037536;28;20207;-65
2021/03/13 07:26:21;;;;;;;16.40;5.90;;;;;;;3.02;78.24;98632.63;5040425;28;20507;-66
2021/03/13 07:28:49;;;;;;;9.00;3.73;;;;;;;3.00;79.08;98623.06;5040427;28;20654;-66
2021/03/13 07:31:19;;;;;;;1.20;1.10;;;;;;;3.08;78.60;98631.34;5036054;28;20292;-66
2021/03/13 07:33:48;;;;;;;5.03;1.70;;;;;;;3.09;78.85;98631.25;5034479;28;20862;-66
2021/03/13 07:36:21;;;;;;;5.07;1.43;;;;;;;3.10;79.05;98625.00;5041962;28;20490;-66
2021/03/13 07:38:51;;;;;;;4.57;1.77;;;;;;;2.80;78.36;98569.72;5037565;28;20228;-66
2021/03/13 07:41:20;;;;;;;3.10;1.50;;;;;;;3.25;78.62;98630.97;5045323;28;20213;-65
2021/03/13 07:43:47;;;;;;;8.33;1.90;;;;;;;3.30;78.35;98628.84;5032679;28;20220;-65
2021/03/13 07:46:15;;;;;;;7.20;2.47;;;;;;;3.37;78.47;98637.22;5038120;28;21049;-65
2021/03/13 07:48:44;;;;;;;11.50;3.67;;;;;;;3.37;78.58;98637.22;5035972;28;21385;-65
2021/03/13 07:51:13;;;;;;;12.60;3.10;;;;;;;3.42;78.63;98641.22;5022179;28;20220;-65
2021/03/13 07:53:43;;;;;;;4.43;1.77;;;;;;;3.51;78.51;98639.72;5039986;28;20221;-65
2021/03/13 07:56:13;;;;;;;6.10;1.30;;;;;;;3.62;78.49;98647.72;5035153;28;20197;-66
2021/03/13 07:58:42;;;;;;;5.50;1.60;;;;;;;3.70;78.07;98640.06;5040877;28;20205;-66
2021/03/13 08:01:12;;;;;;;2.23;1.43;;;;;;;3.78;78.40;98643.94;5041323;28;20204;-65
2021/03/13 08:03:45;;;;;;;10.33;1.57;;;;;;;3.83;78.00;98640.00;5040291;28;20223;-66
2021/03/13 08:06:15;;;;;;;2.00;1.50;;;;;;;3.98;77.97;98645.94;5040761;28;20201;-66
2021/03/13 08:08:44;;;;;;;4.80;1.50;;;;;;;4.07;77.65;98642.63;5023376;28;20219;-66
2021/03/13 08:11:13;;;;;;;5.53;1.37;;;;;;;4.16;77.77;98644.59;5041679;28;20212;-66
2021/03/13 08:14:04;;;;;;;3.53;1.10;;;;;;;4.29;77.37;98648.03;5036334;28;20311;-66
2021/03/13 08:16:49;;;;;;;5.57;1.30;;;;;;;4.43;77.02;98646.97;5038193;28;20207;-66
2021/03/13 08:19:32;;;;;;;4.03;1.10;;;;;;;4.54;76.51;98646.97;5035772;28;20209;-66
2021/03/13 08:22:13;;;;;;;4.43;1.23;;;;;;;4.65;76.25;98649.66;5034138;28;20773;-66
2021/03/13 08:24:45;;;;;;;1.37;1.20;;;;;;;4.69;75.91;98642.28;5033871;28;20194;-66
2021/03/13 08:27:13;;;;;;;6.07;0.83;;;;;;;4.78;76.08;98648.69;5038222;28;20650;-66
2021/03/13 08:29:56;;;;;;;1.63;1.17;;;;;;;4.83;75.66;98649.19;5036886;28;20230;-66
2021/03/13 08:32:57;;;;;;;6.17;1.33;;;;;;;4.87;75.79;98653.28;5039631;28;20274;-66
2021/03/13 08:35:46;;;;;;;3.73;1.20;;;;;;;4.94;75.27;98659.84;5021508;28;20220;-66
2021/03/13 08:38:17;;;;;;;6.10;1.33;;;;;;;5.02;75.54;98661.91;5039050;28;20205;-66
2021/03/13 08:40:48;;;;;;;5.63;1.30;;;;;;;5.08;75.07;98656.09;5035584;28;20194;-66
2021/03/13 08:43:39;;;;;;;5.40;1.43;;;;;;;5.15;74.98;98649.31;5033800;28;20210;-65
2021/03/13 08:46:44;;;;;;;3.95;1.20;;;;;;;5.19;75.20;98645.44;5035766;28;20535;-66
2021/03/13 08:49:14;;;;;;;3.47;1.43;;;;;;;5.24;75.09;98641.47;5036217;28;20580;-66
2021/03/13 08:51:41;;;;;;;10.93;1.60;;;;;;;5.30;75.14;98646.28;5035048;28;20202;-66
2021/03/13 08:54:09;;;;;;;3.40;1.30;;;;;;;5.39;74.84;98651.84;5038321;28;20202;-64
2021/03/13 08:56:42;;;;;;;7.30;1.93;;;;;;;5.46;74.29;98645.03;5037456;28;20254;-64
2021/03/13 08:59:15;;;;;;;7.50;1.60;;;;;;;5.55;74.23;98639.84;5038697;28;20275;-64
2021/03/13 09:01:44;;;;;;;4.73;1.80;;;;;;;5.38;74.34;98600.41;5037113;28;20206;-67
2021/03/13 09:04:12;;;;;;;6.37;1.63;;;;;;;5.72;74.10;98641.09;5037449;28;20280;-64
2021/03/13 09:06:43;;;;;;;7.10;1.90;;;;;;;5.80;73.53;98643.97;5040033;28;20725;-65
2021/03/13 09:09:13;;;;;;;5.00;1.53;;;;;;;5.66;73.25;98615.00;5042511;28;20198;-65
2021/03/13 09:11:42;;;;;;;2.83;1.40;;;;;;;5.96;72.46;98642.75;5038376;28;20242;-65
2021/03/13 09:14:12;;;;;;;4.30;1.27;;;;;;;6.05;72.64;98647.31;5039270;28;20202;-65
2021/03/13 09:16:41;;;;;;;213.53;93.83;;;;;;;6.14;72.15;98649.25;5042467;28;20198;-64
2021/03/13 09:19:14;;;;;;;21.33;10.40;;;;;;;6.21;72.68;98645.09;5039215;28;20269;-65
2021/03/13 09:21:52;;;;;;;16.60;8.77;;;;;;;6.35;71.24;98646.56;5041975;28;20198;-65
2021/03/13 09:24:22;;;;;;;15.27;6.13;;;;;;;6.44;71.74;98643.16;5027139;28;20261;-64
2021/03/13 09:26:54;;;;;;;11.10;3.20;;;;;;;6.45;71.04;98623.53;5040541;28;20242;-65
2021/03/13 09:29:29;;;;;;;3.40;2.43;;;;;;;6.69;70.47;98642.72;5035656;28;20307;-65
2021/03/13 09:32:04;;;;;;;9.20;3.70;;;;;;;6.81;70.41;98640.84;5040673;28;20590;-65
2021/03/13 09:34:33;;;;;;;4.13;2.60;;;;;;;6.91;70.65;98630.22;5039564;28;20635;-65
2021/03/13 09:37:14;;;;;;;3.17;2.10;;;;;;;7.01;69.98;98637.28;5039278;28;20205;-65
2021/03/13 09:39:42;;;;;;;18.17;11.17;;;;;;;7.10;70.00;98630.31;5020441;28;20227;-65
2021/03/13 09:42:13;;;;;;;11.83;2.97;;;;;;;7.20;68.76;98625.00;5042668;28;20204;-65
2021/03/13 09:44:44;;;;;;;4.63;1.90;;;;;;;7.28;68.46;98628.69;5044382;28;20284;-65
2021/03/13 09:47:14;;;;;;;2.47;2.20;;;;;;;7.35;68.91;98631.69;5045514;28;20202;-65
2021/03/13 09:49:43;;;;;;;11.73;2.47;;;;;;;7.39;69.17;98625.06;5044278;28;20202;-65
2021/03/13 09:52:12;;;;;;;3.30;1.70;;;;;;;7.48;68.30;98633.09;5044573;28;20733;-65
2021/03/13 09:54:41;;;;;;;4.43;2.47;;;;;;;7.55;67.80;98630.72;5044548;28;20229;-66
2021/03/13 09:57:13;;;;;;;7.43;1.30;;;;;;;7.65;67.84;98626.28;5041211;28;20209;-65
2021/03/13 09:59:41;;;;;;;2.33;1.13;;;;;;;7.34;67.47;98572.06;5041898;28;20250;-65
2021/03/13 10:02:11;;;;;;;1.90;1.20;;;;;;;7.73;66.57;98623.75;5040797;28;20276;-65
2021/03/13 10:04:40;;;;;;;2.37;0.97;;;;;;;7.71;66.90;98622.19;5040061;28;20217;-65
2021/03/13 10:07:26;;;;;;;2.93;1.40;;;;;;;7.68;67.37;98623.31;5040807;28;20218;-65
2021/03/13 10:09:56;;;;;;;2.10;1.13;;;;;;;7.73;67.91;98620.22;5044835;28;20792;-65
2021/03/13 10:12:30;;;;;;;5.93;1.50;;;;;;;7.77;67.77;98614.47;5042154;28;20213;-65
2021/03/13 10:15:14;;;;;;;2.17;1.33;;;;;;;7.83;67.73;98625.56;5040155;28;20194;-65
2021/03/13 10:17:57;;;;;;;2.60;1.23;;;;;;;7.84;66.33;98621.91;5046543;28;20201;-65
2021/03/13 10:20:26;;;;;;;3.10;0.90;;;;;;;7.91;66.55;98628.38;5039117;28;20200;-65
2021/03/13 10:22:54;;;;;;;5.40;1.20;;;;;;;7.73;67.24;98596.19;5044630;28;20272;-66
2021/03/13 10:25:23;;;;;;;6.20;1.33;;;;;;;7.83;66.94;98588.16;5046986;28;20212;-66
2021/03/13 10:27:52;;;;;;;9.67;1.37;;;;;;;8.08;66.84;98625.03;5039878;28;20227;-65
2021/03/13 10:30:26;;;;;;;4.33;1.30;;;;;;;8.01;66.23;98619.41;5039262;28;20229;-65
2021/03/13 10:32:54;;;;;;;5.10;1.50;;;;;;;8.09;66.40;98621.38;5043195;28;20321;-65
2021/03/13 10:35:27;;;;;;;8.83;1.53;;;;;;;8.17;66.74;98621.50;5043457;28;20235;-65
2021/03/13 10:37:56;;;;;;;3.67;1.20;;;;;;;8.22;66.27;98623.75;5042400;28;20201;-65
2021/03/13 10:40:36;;;;;;;5.33;1.17;;;;;;;8.22;66.33;98619.25;5042711;28;20466;-66
2021/03/13 10:43:19;;;;;;;6.70;1.63;;;;;;;8.29;65.97;98627.56;5045477;28;20208;-66
2021/03/13 10:46:02;;;;;;;5.53;1.17;;;;;;;8.33;66.26;98628.97;5045924;28;20669;-65
2021/03/13 10:48:31;;;;;;;6.70;1.47;;;;;;;8.36;65.56;98637.56;5047026;28;20309;-65
2021/03/13 10:51:00;;;;;;;2.63;1.23;;;;;;;8.29;65.75;98635.59;5046559;28;20246;-66
2021/03/13 10:53:33;;;;;;;4.63;1.43;;;;;;;8.33;66.10;98637.88;5041053;28;20227;-65
2021/03/13 10:56:03;;;;;;;4.70;2.00;;;;;;;8.35;65.67;98641.25;5045085;28;20739;-66
2021/03/13 10:58:33;;;;;;;8.30;2.40;;;;;;;8.43;65.99;98637.84;5042671;28;20215;-65
2021/03/13 11:01:03;;;;;;;5.90;1.73;;;;;;;8.32;65.61;98614.75;5043166;28;20204;-65
2021/03/13 11:03:31;;;;;;;1999.90;845.53;;;;;;;8.58;64.41;98640.94;5043797;28;20204;-66
2021/03/13 11:05:58;;;;;;;123.63;48.60;;;;;;;8.67;65.15;98645.41;5044770;28;20676;-66
2021/03/13 11:08:28;;;;;;;40.00;15.30;;;;;;;8.73;65.97;98644.84;5045891;28;20383;-65
2021/03/13 11:10:57;;;;;;;49.17;16.70;;;;;;;8.87;64.71;98644.38;5043024;28;20198;-66
2021/03/13 11:13:25;;;;;;;25.03;8.53;;;;;;;8.92;64.86;98639.44;5055079;28;20302;-65
2021/03/13 11:15:57;;;;;;;16.50;6.33;;;;;;;9.06;64.87;98647.97;5063987;28;20224;-66
2021/03/13 11:18:25;;;;;;;18.90;4.30;;;;;;;8.94;64.48;98613.38;5058230;28;20208;-66
2021/03/13 11:20:53;;;;;;;6.03;2.50;;;;;;;9.00;64.81;98644.91;5058360;28;20204;-65
2021/03/13 11:23:20;;;;;;;11.00;3.43;;;;;;;9.18;64.44;98644.13;5063989;28;20270;-65
2021/03/13 11:25:48;;;;;;;10.23;4.97;;;;;;;9.28;64.94;98639.59;5054944;28;20305;-65
2021/03/13 11:28:17;;;;;;;9.23;2.90;;;;;;;9.25;63.90;98623.81;5064734;28;20241;-66
2021/03/13 11:30:47;;;;;;;9.73;2.47;;;;;;;9.17;64.27;98624.53;5056137;28;20656;-66
2021/03/13 11:33:15;;;;;;;6.17;3.80;;;;;;;9.24;64.23;98635.53;5062658;28;20220;-65
2021/03/13 11:35:43;;;;;;;12.00;2.63;;;;;;;9.23;63.41;98632.00;5055847;28;20223;-66
2021/03/13 11:38:29;;;;;;;8.63;3.17;;;;;;;9.31;63.83;98634.78;5059068;28;20260;-65
2021/03/13 11:40:56;;;;;;;9.80;2.10;;;;;;;9.29;64.08;98614.50;5053568;28;20218;-66
2021/03/13 11:43:24;;;;;;;3.43;2.10;;;;;;;9.43;62.87;98626.53;5057474;28;20283;-65
2021/03/13 11:45:52;;;;;;;5.60;1.83;;;;;;;9.62;63.02;98621.91;5058534;28;20198;-65
2021/03/13 11:48:21;;;;;;;6.13;1.83;;;;;;;9.68;63.05;98624.97;5056919;28;20621;-65
2021/03/13 11:50:48;;;;;;;3.70;2.50;;;;;;;9.58;62.26;98628.56;5042193;28;20213;-65
2021/03/13 11:53:18;;;;;;;8.67;4.30;;;;;;;9.72;62.29;98623.69;5058958;28;20247;-65
2021/03/13 11:55:46;;;;;;;7.03;2.43;;;;;;;9.74;62.23;98619.00;5058980;28;20208;-65
2021/03/13 11:58:14;;;;;;;4.77;2.30;;;;;;;9.83;62.48;98615.44;5066255;28;20668;-65